• Join FlightAware (Why Join?)
  • Login
  • US Flag 
01:06AM EDT


 

Airport Tracker/Info


-or-


 

Live Flight TrackerFlight Track Log ✈ DAL5889 ✈ 27-Aug-2013 ✈ KBOS - KLGA

Flight Track Log - Related Links

Times and Time Zones

All times are in EDT time to prevent confusion due to time zone crossing. See the DAL5889 flight status page for this flight to view local times or setup timezone preferences in your user account.

Time Position Orientation Groundspeed Altitude Reporting Facility
EDT Latitude Longitude Course Direction KTS MPH feet Rate Location/Type
04:14PM 42.3667 -70.9833 258° West 117 135 1,000  Level KA90
04:16PM 42.3794 -70.8858 80° East 193 222 4,300 2,340 Climbing Boston Center
04:17PM 42.3842 -70.7761 87° East 244 281 6,900 3,180 Climbing Boston Center
04:18PM 42.3167 -70.7303 153° Southeast 216 249 10,700 2,640 Climbing Boston Center
04:19PM 42.1766 -71.0107 258° West  Level FlightAware Approximate
04:19PM 42.2383 -70.7883 209° Southwest 224 258 12,300  Level Boston Center
04:20PM 42.2006 -70.9156 248° West 273 314 15,100 1,800 Climbing Boston Center
04:21PM 42.1814 -71.0447 259° West 364 419 16,000 420 Climbing Boston Center
04:22PM 42.1581 -71.2050 259° West 389 448 16,000  Level Boston Center
04:23PM 42.1408 -71.3369 260° West 394 453 16,000  Level Boston Center
04:24PM 42.1192 -71.4942 260° West 394 453 16,000  Level Boston Center
04:25PM 42.0975 -71.6400 259° West 394 453 16,000  Level Boston Center
04:26PM 42.0775 -71.7689 258° West 394 453 16,000  Level Boston Center
04:27PM 42.0553 -71.9311 260° West 394 453 16,000  Level Boston Center
04:28PM 42.0350 -72.0572 258° West 394 453 16,000  Level Boston Center
04:29PM 42.0125 -72.2167 259° West 394 453 16,000  Level Boston Center
04:30PM 41.9939 -72.3450 259° West 394 453 16,000  Level Boston Center
04:31PM 41.9711 -72.5017 259° West 394 453 16,000  Level Boston Center
04:32PM 41.9522 -72.6158 257° West 388 447 16,000 -900 Level Boston Center
04:33PM 41.9103 -72.7636 249° West 393 452 14,200 -1,020 Descending Boston Center
04:34PM 41.8578 -72.8889 241° Southwest 393 452 14,000 -120 Descending Boston Center
04:35PM 41.8028 -73.0222 241° Southwest 388 447 14,000  Level Boston Center
04:36PM 41.7542 -73.1414 241° Southwest 377 434 14,000  Level Boston Center
04:37PM 41.7014 -73.2631 240° Southwest 372 428 14,000  Level Boston Center
04:38PM 41.6503 -73.3819 240° Southwest 372 428 14,000 -420 Level Boston Center
04:40PM 41.5500 -73.6000 238° Southwest 367 422 12,900 -1,020 Descending New York TRACON
04:41PM 41.5167 -73.7167 249° West 355 409 11,200 -1,380 Descending New York TRACON
04:41PM 41.4500 -73.8000 223° Southwest 335 386 10,300 -1,200 Descending New York TRACON
04:42PM 41.3833 -73.8167 191° South 303 349 9,000 -660 Descending New York TRACON
04:43PM 41.3167 -73.7667 151° Southeast 261 300 9,000 -540 Level New York TRACON
04:44PM 41.2500 -73.7167 151° Southeast 260 299 8,000 -1,080 Descending New York TRACON
04:46PM 41.1833 -73.6667 151° Southeast 252 290 6,800 -1,260 Descending New York TRACON
04:46PM 41.1167 -73.6667 180° South 250 288 5,500 -1,380 Descending New York TRACON
04:48PM 41.0500 -73.6667 180° South 260 299 4,100 -720 Descending New York TRACON
04:49PM 40.9833 -73.6667 180° South 249 287 4,000 -60 Descending New York TRACON
04:50PM 40.9167 -73.6500 169° South 242 278 4,000  Level New York TRACON
04:51PM 40.8500 -73.6833 201° Southwest 210 242 4,000  Level New York TRACON
04:52PM 40.8000 -73.7833 237° Southwest 196 226 4,000  Level New York TRACON
04:53PM 40.7833 -73.8500 252° West 196 226 4,000  Level New York TRACON
04:54PM 40.7667 -73.9167 252° West 199 229 4,000  Level New York TRACON
04:55PM 40.7500 -73.9833 252° West 197 227 4,000 -360 Level New York TRACON
04:57PM 40.7000 -74.0167 207° Southwest 208 239 3,300 -540 Descending New York TRACON
04:57PM 40.7000 -73.9667 90° East 196 226 3,000 -660 Descending New York TRACON
04:58PM 40.7167 -73.9000 72° East 184 212 2,100 -960 Descending New York TRACON
05:00PM 40.7333 -73.8500 66° East 136 157 1,100 -840 Descending New York TRACON
05:01PM 40.7667 -73.8333 21° North 123 142 400 -720 Descending New York TRACON